createdAt,value
2023-01-19T00:00:11.127Z,75.65
2023-01-19T00:02:38.647Z,75.68
2023-01-19T00:05:06.559Z,75.54
2023-01-19T00:07:33.478Z,75.59
2023-01-19T00:10:00.582Z,75.63
2023-01-19T00:12:28.330Z,75.56
2023-01-19T00:14:55.116Z,75.53
2023-01-19T00:17:22.240Z,75.51
2023-01-19T00:19:49.388Z,75.35
2023-01-19T00:22:16.411Z,75.32
2023-01-19T00:24:44.764Z,75.30
2023-01-19T00:27:11.875Z,75.15
2023-01-19T00:29:38.980Z,75.05
2023-01-19T00:32:06.786Z,75.05
2023-01-19T00:34:49.716Z,74.90
2023-01-19T00:37:17.543Z,74.93
2023-01-19T00:39:45.382Z,74.84
2023-01-19T00:42:32.178Z,75.04
2023-01-19T00:44:59.354Z,75.00
2023-01-19T00:47:26.555Z,74.88
2023-01-19T00:49:53.677Z,74.84
2023-01-19T00:52:21.110Z,74.78
2023-01-19T00:54:47.931Z,74.86
2023-01-19T00:57:15.970Z,74.79
2023-01-19T00:59:43.714Z,74.72
2023-01-19T01:02:11.705Z,74.65
2023-01-19T01:04:39.143Z,74.65
2023-01-19T01:07:06.930Z,74.63
2023-01-19T01:09:34.035Z,74.64
2023-01-19T01:12:00.879Z,74.73
2023-01-19T01:14:28.322Z,74.59
2023-01-19T01:16:55.604Z,74.50
2023-01-19T01:19:22.788Z,74.57
2023-01-19T01:21:51.541Z,74.56
2023-01-19T01:24:19.236Z,74.42
2023-01-19T01:26:46.404Z,74.42
2023-01-19T01:29:13.559Z,74.49
2023-01-19T01:31:40.748Z,74.53
2023-01-19T01:34:07.636Z,74.44
2023-01-19T01:36:35.881Z,74.27
2023-01-19T01:39:03.833Z,74.34
2023-01-19T01:41:32.540Z,74.28
2023-01-19T01:44:02.025Z,74.26
2023-01-19T01:46:31.122Z,74.24
2023-01-19T01:49:16.728Z,74.25
2023-01-19T01:51:51.460Z,74.22
2023-01-19T01:54:21.397Z,74.24
2023-01-19T01:56:51.997Z,74.21
2023-01-19T01:59:29.846Z,74.19
2023-01-19T02:02:18.837Z,74.21
2023-01-19T02:05:07.925Z,74.19
2023-01-19T02:08:15.603Z,73.99
2023-01-19T02:11:03.482Z,73.98
2023-01-19T02:13:33.175Z,73.83
2023-01-19T02:16:03.646Z,73.78
2023-01-19T02:18:32.041Z,73.75
2023-01-19T02:21:05.074Z,73.65
2023-01-19T02:23:40.979Z,73.63
2023-01-19T02:26:11.237Z,73.43
2023-01-19T02:28:43.452Z,73.54
2023-01-19T02:31:11.688Z,73.47
2023-01-19T02:33:39.204Z,73.54
2023-01-19T02:36:08.277Z,73.48
2023-01-19T02:38:37.216Z,73.41
2023-01-19T02:41:07.360Z,73.29
2023-01-19T02:43:35.906Z,73.00
2023-01-19T02:46:03.463Z,72.96
2023-01-19T02:48:30.953Z,72.75
2023-01-19T02:51:04.366Z,72.64
2023-01-19T02:53:59.963Z,72.68
2023-01-19T02:56:42.408Z,72.77
2023-01-19T02:59:47.494Z,72.85
2023-01-19T03:03:07.194Z,72.66
2023-01-19T03:05:40.522Z,72.47
2023-01-19T03:08:22.610Z,72.48
2023-01-19T03:11:08.232Z,72.41
2023-01-19T03:14:04.143Z,72.59
2023-01-19T03:16:44.313Z,72.59
2023-01-19T03:19:11.757Z,72.86
2023-01-19T03:21:43.457Z,72.84
2023-01-19T03:24:13.472Z,72.82
2023-01-19T03:26:49.866Z,72.79
2023-01-19T03:29:19.783Z,72.46
2023-01-19T03:31:50.919Z,72.49
2023-01-19T03:34:22.437Z,72.30
2023-01-19T03:36:54.152Z,71.94
2023-01-19T03:39:24.581Z,71.91
2023-01-19T03:42:00.121Z,71.63
2023-01-19T03:44:29.225Z,71.06
2023-01-19T03:46:58.924Z,71.00
2023-01-19T03:49:26.523Z,71.01
2023-01-19T03:51:55.840Z,70.99
2023-01-19T03:54:23.322Z,70.79
2023-01-19T03:56:52.491Z,70.72
2023-01-19T03:59:20.040Z,70.62
2023-01-19T04:01:47.307Z,70.45
2023-01-19T04:04:15.630Z,70.32
2023-01-19T04:06:44.093Z,69.95
2023-01-19T04:09:11.348Z,69.95
2023-01-19T04:11:38.471Z,69.86
2023-01-19T04:14:05.426Z,69.80
2023-01-19T04:16:32.945Z,69.85
2023-01-19T04:18:59.735Z,69.86
2023-01-19T04:21:27.314Z,69.56
2023-01-19T04:23:54.216Z,69.41
2023-01-19T04:26:21.358Z,69.37
2023-01-19T04:28:48.835Z,69.35
2023-01-19T04:31:16.206Z,69.23
2023-01-19T04:33:43.660Z,68.90
2023-01-19T04:36:10.517Z,68.82
2023-01-19T04:38:37.358Z,68.80
2023-01-19T04:41:04.881Z,68.77
2023-01-19T04:43:31.973Z,68.64
2023-01-19T04:45:59.291Z,68.37
2023-01-19T04:48:26.811Z,67.95
2023-01-19T04:50:54.288Z,67.80
2023-01-19T04:53:21.660Z,67.77
2023-01-19T04:55:53.618Z,67.47
2023-01-19T04:58:21.238Z,67.38
2023-01-19T05:00:48.711Z,67.45
2023-01-19T05:03:15.938Z,67.22
2023-01-19T05:05:43.363Z,67.06
2023-01-19T05:08:10.872Z,67.02
2023-01-19T05:10:37.639Z,66.88
2023-01-19T05:13:05.630Z,66.84
2023-01-19T05:15:33.098Z,66.67
2023-01-19T05:17:59.958Z,66.59
2023-01-19T05:20:27.767Z,66.41
2023-01-19T05:22:55.281Z,66.42
2023-01-19T05:25:22.391Z,66.21
2023-01-19T05:27:49.977Z,66.34
2023-01-19T05:30:17.855Z,66.25
2023-01-19T05:32:45.280Z,66.13
2023-01-19T05:35:13.552Z,65.83
2023-01-19T05:37:40.918Z,65.84
2023-01-19T05:40:09.611Z,65.79
2023-01-19T05:42:37.620Z,65.75
2023-01-19T05:45:05.853Z,65.80
2023-01-19T05:47:32.694Z,65.73
2023-01-19T05:50:00.128Z,65.65
2023-01-19T05:52:27.233Z,65.41
2023-01-19T05:54:55.544Z,65.30
2023-01-19T05:57:23.564Z,65.10
2023-01-19T05:59:50.479Z,64.89
2023-01-19T06:02:17.789Z,65.07
2023-01-19T06:04:45.030Z,64.97
2023-01-19T06:07:12.187Z,64.93
2023-01-19T06:09:39.341Z,64.93
2023-01-19T06:12:06.875Z,65.05
2023-01-19T06:14:33.727Z,64.97
2023-01-19T06:17:00.875Z,64.92
2023-01-19T06:19:28.295Z,64.92
2023-01-19T06:21:55.403Z,64.81
2023-01-19T06:24:23.462Z,64.76
2023-01-19T06:26:50.989Z,64.46
2023-01-19T06:29:18.446Z,64.72
2023-01-19T06:31:45.673Z,64.79
2023-01-19T06:34:13.204Z,64.72
2023-01-19T06:36:40.407Z,64.76
2023-01-19T06:39:07.850Z,64.90
2023-01-19T06:41:34.781Z,64.80
2023-01-19T06:44:02.836Z,64.73
2023-01-19T06:46:29.697Z,64.82
2023-01-19T06:48:56.869Z,64.76
2023-01-19T06:51:24.553Z,64.76
2023-01-19T06:53:51.654Z,64.70
2023-01-19T06:56:18.530Z,64.83
2023-01-19T06:58:50.803Z,64.95
2023-01-19T07:01:17.653Z,65.00
2023-01-19T07:03:46.877Z,65.02
2023-01-19T07:06:14.577Z,65.10
2023-01-19T07:08:41.680Z,65.05
2023-01-19T07:11:25.464Z,64.93
2023-01-19T07:13:58.432Z,64.89
2023-01-19T07:16:25.746Z,64.95
2023-01-19T07:18:52.953Z,64.77
2023-01-19T07:21:20.235Z,64.77
2023-01-19T07:23:51.876Z,64.82
2023-01-19T07:26:21.344Z,64.80
2023-01-19T07:28:49.020Z,64.85
2023-01-19T07:31:18.268Z,64.67
2023-01-19T07:33:45.656Z,64.96
2023-01-19T07:36:12.788Z,65.00
2023-01-19T07:38:40.320Z,64.93
2023-01-19T07:41:09.633Z,64.87
2023-01-19T07:43:36.534Z,64.86
2023-01-19T07:46:06.435Z,64.81
2023-01-19T07:48:33.327Z,64.84
2023-01-19T07:51:13.066Z,64.83
2023-01-19T07:53:41.858Z,64.70
2023-01-19T07:56:09.122Z,64.68
2023-01-19T07:58:36.329Z,64.84
2023-01-19T08:01:11.792Z,64.67
2023-01-19T08:03:40.041Z,64.73
2023-01-19T08:06:08.116Z,64.72
2023-01-19T08:08:35.317Z,64.69
2023-01-19T08:11:02.114Z,64.71
2023-01-19T08:13:29.685Z,64.71
2023-01-19T08:15:56.824Z,64.55
2023-01-19T08:18:23.689Z,64.55
2023-01-19T08:20:51.187Z,64.47
2023-01-19T08:23:18.691Z,64.27
2023-01-19T08:25:46.036Z,64.41
2023-01-19T08:28:15.814Z,64.55
2023-01-19T08:30:45.007Z,64.49
2023-01-19T08:33:13.949Z,64.60
2023-01-19T08:35:42.635Z,64.56
2023-01-19T08:38:10.693Z,64.47
2023-01-19T08:40:40.617Z,64.44
2023-01-19T08:43:13.614Z,64.32
2023-01-19T08:45:45.321Z,64.36
2023-01-19T08:48:13.978Z,64.30
2023-01-19T08:50:41.447Z,64.34
2023-01-19T08:53:10.362Z,64.26
2023-01-19T08:55:38.080Z,64.30
2023-01-19T08:58:06.680Z,64.34
2023-01-19T09:00:35.048Z,64.34
2023-01-19T09:03:04.284Z,64.16
2023-01-19T09:05:36.009Z,64.10
2023-01-19T09:08:09.541Z,64.23
2023-01-19T09:10:38.551Z,64.09
2023-01-19T09:13:08.542Z,64.11
2023-01-19T09:15:38.055Z,64.19
2023-01-19T09:18:07.728Z,64.29
2023-01-19T09:20:36.241Z,64.17
2023-01-19T09:23:03.499Z,64.15
2023-01-19T09:25:31.142Z,64.09
2023-01-19T09:28:01.208Z,63.99
2023-01-19T09:30:28.773Z,63.93
2023-01-19T09:32:55.517Z,63.90
2023-01-19T09:35:22.990Z,63.95
2023-01-19T09:37:49.847Z,63.77
2023-01-19T09:40:19.204Z,63.66
2023-01-19T09:43:10.721Z,63.61
2023-01-19T09:46:04.456Z,63.61
2023-01-19T09:48:50.700Z,63.72
2023-01-19T09:51:23.919Z,63.73
2023-01-19T09:54:03.956Z,63.66
2023-01-19T09:56:32.249Z,63.59
2023-01-19T09:59:00.697Z,63.68
2023-01-19T10:02:08.076Z,63.76
2023-01-19T10:04:44.069Z,63.70
2023-01-19T10:07:15.013Z,63.65
2023-01-19T10:10:02.770Z,63.65
2023-01-19T10:12:51.019Z,63.68
2023-01-19T10:15:46.284Z,63.80
2023-01-19T10:18:18.885Z,63.54
2023-01-19T10:20:57.159Z,63.53
2023-01-19T10:23:24.443Z,63.60
2023-01-19T10:25:52.688Z,63.70
2023-01-19T10:28:24.481Z,63.57
2023-01-19T10:30:54.429Z,63.51
2023-01-19T10:33:21.367Z,63.52
2023-01-19T10:35:51.533Z,63.63
2023-01-19T10:38:22.323Z,63.67
2023-01-19T10:41:01.298Z,63.60
2023-01-19T10:43:34.572Z,63.66
2023-01-19T10:46:06.234Z,63.65
2023-01-19T10:48:42.347Z,63.56
2023-01-19T10:51:11.081Z,63.48
2023-01-19T10:53:38.832Z,63.38
2023-01-19T10:56:27.800Z,63.29
2023-01-19T10:58:55.180Z,62.88
2023-01-19T11:01:27.781Z,62.51
2023-01-19T11:03:57.111Z,62.40
2023-01-19T11:06:28.248Z,62.76
2023-01-19T11:09:12.101Z,62.69
2023-01-19T11:11:45.820Z,62.53
2023-01-19T11:14:17.460Z,62.59
2023-01-19T11:16:55.628Z,62.69
2023-01-19T11:19:32.432Z,62.68
2023-01-19T11:22:33.443Z,62.78
2023-01-19T11:25:03.323Z,62.53
2023-01-19T11:27:34.942Z,62.33
2023-01-19T11:30:10.377Z,62.29
2023-01-19T11:32:37.942Z,62.43
2023-01-19T11:35:36.014Z,62.38
2023-01-19T11:38:12.290Z,62.30
2023-01-19T11:40:40.790Z,62.25
2023-01-19T11:43:12.882Z,62.05
2023-01-19T11:45:40.188Z,61.97
2023-01-19T11:48:16.146Z,61.77
2023-01-19T11:50:45.070Z,61.95
2023-01-19T11:53:28.264Z,61.96
2023-01-19T11:56:08.815Z,62.03
2023-01-19T11:58:42.045Z,62.17
2023-01-19T12:01:21.772Z,62.31
2023-01-19T12:03:57.463Z,62.02
2023-01-19T12:06:38.864Z,62.01
2023-01-19T12:09:19.406Z,61.92
2023-01-19T12:11:52.502Z,62.02
2023-01-19T12:14:47.632Z,61.81
2023-01-19T12:17:26.173Z,61.84
2023-01-19T12:20:27.538Z,61.76
2023-01-19T12:23:17.837Z,61.69
2023-01-19T12:26:00.583Z,61.72
2023-01-19T12:28:34.489Z,61.60
2023-01-19T12:31:02.422Z,61.55
2023-01-19T12:33:29.493Z,61.62
2023-01-19T12:36:03.832Z,61.44
2023-01-19T12:38:53.915Z,61.40
2023-01-19T12:41:24.535Z,61.32
2023-01-19T12:44:09.816Z,61.36
2023-01-19T12:46:39.391Z,61.43
2023-01-19T12:49:24.162Z,61.33
2023-01-19T12:51:54.389Z,61.21
2023-01-19T12:54:32.959Z,61.25
2023-01-19T12:57:04.452Z,61.10
2023-01-19T12:59:35.711Z,61.14
2023-01-19T13:02:21.024Z,61.26
2023-01-19T13:05:06.972Z,61.35
2023-01-19T13:08:01.904Z,61.30
2023-01-19T13:11:00.703Z,61.21
2023-01-19T13:13:43.866Z,61.19
2023-01-19T13:16:20.420Z,61.56
2023-01-19T13:18:53.833Z,61.54
2023-01-19T13:21:35.062Z,61.66
2023-01-19T13:24:09.104Z,61.54
2023-01-19T13:26:39.727Z,61.46
2023-01-19T13:29:14.091Z,61.36
2023-01-19T13:31:43.685Z,61.30
2023-01-19T13:34:14.401Z,61.23
2023-01-19T13:36:47.591Z,61.05
2023-01-19T13:39:20.266Z,61.24
2023-01-19T13:41:49.433Z,61.31
2023-01-19T13:44:25.685Z,61.45
2023-01-19T13:46:54.561Z,61.47
2023-01-19T13:49:29.505Z,61.28
2023-01-19T13:52:28.268Z,61.14
2023-01-19T13:55:02.832Z,61.02
2023-01-19T13:57:40.688Z,61.03
2023-01-19T14:00:17.149Z,60.85
2023-01-19T14:02:53.865Z,60.90
2023-01-19T14:05:39.133Z,60.94
2023-01-19T14:08:11.463Z,60.60
2023-01-19T14:11:02.089Z,60.53
2023-01-19T14:13:41.869Z,60.45
2023-01-19T14:16:17.496Z,60.43
2023-01-19T14:18:44.700Z,60.10
2023-01-19T14:21:15.297Z,59.94
2023-01-19T14:23:54.811Z,60.03
2023-01-19T14:26:46.822Z,60.08
2023-01-19T14:29:16.169Z,59.97
2023-01-19T14:31:49.084Z,59.74
2023-01-19T14:34:39.605Z,59.66
2023-01-19T14:37:21.728Z,59.65
2023-01-19T14:39:51.996Z,59.63
2023-01-19T14:42:24.961Z,59.39
2023-01-19T14:44:54.759Z,59.16
2023-01-19T14:47:33.609Z,59.13
2023-01-19T14:50:17.825Z,59.13
2023-01-19T14:53:08.817Z,59.12
2023-01-19T14:55:57.126Z,58.97
2023-01-19T14:58:26.785Z,58.91
2023-01-19T15:00:57.057Z,59.07
2023-01-19T15:03:34.940Z,59.14
2023-01-19T15:06:19.919Z,59.24
2023-01-19T15:08:47.291Z,59.41
2023-01-19T15:11:30.170Z,59.50
2023-01-19T15:13:59.136Z,59.65
2023-01-19T15:16:28.090Z,59.65
2023-01-19T15:18:55.676Z,59.91
2023-01-19T15:21:24.040Z,60.11
2023-01-19T15:23:51.118Z,60.30
2023-01-19T15:26:21.154Z,60.44
2023-01-19T15:28:49.250Z,60.70
2023-01-19T15:31:18.896Z,60.89
2023-01-19T15:33:46.770Z,61.02
2023-01-19T15:36:17.676Z,61.20
2023-01-19T15:38:46.346Z,61.39
2023-01-19T15:41:23.326Z,61.52
2023-01-19T15:43:51.416Z,61.79
2023-01-19T15:46:23.025Z,61.96
2023-01-19T15:48:53.395Z,62.13
2023-01-19T15:51:25.559Z,62.35
2023-01-19T15:53:54.257Z,62.55
2023-01-19T15:56:31.869Z,62.82
2023-01-19T15:58:59.585Z,63.05
2023-01-19T16:01:32.350Z,63.20
2023-01-19T16:04:01.890Z,63.44
2023-01-19T16:06:30.332Z,63.66
2023-01-19T16:09:01.204Z,63.74
2023-01-19T16:11:30.566Z,63.84
2023-01-19T16:13:58.101Z,64.04
2023-01-19T16:16:26.165Z,64.13
2023-01-19T16:18:53.461Z,64.11
2023-01-19T16:21:20.619Z,64.22
2023-01-19T16:23:47.551Z,64.35
2023-01-19T16:26:29.014Z,64.49
2023-01-19T16:28:57.893Z,64.61
2023-01-19T16:31:25.612Z,64.71
2023-01-19T16:33:52.967Z,64.75
2023-01-19T16:36:31.395Z,64.81
2023-01-19T16:39:12.961Z,64.77
2023-01-19T16:41:41.855Z,64.92
2023-01-19T16:44:11.600Z,65.03
2023-01-19T16:46:44.817Z,65.15
2023-01-19T16:49:15.355Z,65.10
2023-01-19T16:51:43.592Z,65.18
2023-01-19T16:54:18.355Z,65.32
2023-01-19T16:56:46.655Z,65.32
2023-01-19T16:59:15.904Z,65.44
2023-01-19T17:01:44.880Z,65.50
2023-01-19T17:04:13.247Z,65.60
2023-01-19T17:06:41.428Z,65.82
2023-01-19T17:09:12.415Z,65.87
2023-01-19T17:11:43.228Z,65.92
2023-01-19T17:14:14.472Z,66.04
2023-01-19T17:16:43.462Z,66.08
2023-01-19T17:19:15.950Z,66.09
2023-01-19T17:21:49.144Z,66.16
2023-01-19T17:24:18.159Z,66.18
2023-01-19T17:26:49.016Z,66.20
2023-01-19T17:29:17.744Z,66.19
2023-01-19T17:31:48.575Z,66.18
2023-01-19T17:34:16.907Z,66.16
2023-01-19T17:36:46.162Z,66.09
2023-01-19T17:39:15.192Z,66.20
2023-01-19T17:41:43.540Z,66.17
2023-01-19T17:44:12.637Z,66.07
2023-01-19T17:46:40.737Z,65.97
2023-01-19T17:49:09.308Z,65.61
2023-01-19T17:51:38.516Z,65.54
2023-01-19T17:54:07.566Z,65.38
2023-01-19T17:56:39.378Z,65.44
2023-01-19T17:59:09.258Z,65.40
2023-01-19T18:01:40.882Z,65.27
2023-01-19T18:04:10.078Z,65.18
2023-01-19T18:06:42.243Z,65.29
2023-01-19T18:09:10.673Z,65.46
2023-01-19T18:11:39.392Z,65.49
2023-01-19T18:14:07.778Z,65.60
2023-01-19T18:16:36.437Z,65.70
2023-01-19T18:19:06.866Z,65.77
2023-01-19T18:21:36.368Z,65.87
2023-01-19T18:24:06.871Z,65.53
2023-01-19T18:26:36.420Z,65.55
2023-01-19T18:29:05.352Z,65.79
2023-01-19T18:31:33.641Z,65.96
2023-01-19T18:34:02.176Z,66.06
2023-01-19T18:36:34.365Z,66.13
2023-01-19T18:39:02.388Z,66.19
2023-01-19T18:41:32.287Z,66.26
2023-01-19T18:44:02.187Z,66.29
2023-01-19T18:46:30.898Z,66.36
2023-01-19T18:49:02.600Z,66.33
2023-01-19T18:51:31.864Z,66.65
2023-01-19T18:53:59.811Z,66.75
2023-01-19T18:56:29.266Z,66.70
2023-01-19T18:58:57.786Z,66.84
2023-01-19T19:01:34.446Z,66.97
2023-01-19T19:04:02.883Z,67.33
2023-01-19T19:06:31.744Z,67.55
2023-01-19T19:09:04.078Z,67.67
2023-01-19T19:11:34.991Z,67.55
2023-01-19T19:14:04.255Z,67.52
2023-01-19T19:16:35.402Z,67.55
2023-01-19T19:19:05.491Z,67.65
2023-01-19T19:21:36.788Z,67.66
2023-01-19T19:24:05.509Z,67.25
2023-01-19T19:26:35.464Z,67.27
2023-01-19T19:29:05.247Z,67.24
2023-01-19T19:31:34.221Z,67.30
2023-01-19T19:34:02.360Z,67.22
2023-01-19T19:36:30.317Z,67.52
2023-01-19T19:39:00.645Z,67.67
2023-01-19T19:41:33.025Z,67.75
2023-01-19T19:44:01.755Z,67.94
2023-01-19T19:46:31.235Z,67.95
2023-01-19T19:49:00.573Z,68.00
2023-01-19T19:51:29.625Z,67.98
2023-01-19T19:54:00.623Z,68.04
2023-01-19T19:56:31.390Z,68.07
2023-01-19T19:59:00.571Z,68.03
2023-01-19T20:01:33.526Z,68.00
2023-01-19T20:04:11.405Z,68.03
2023-01-19T20:06:41.956Z,68.12
2023-01-19T20:09:13.556Z,68.12
2023-01-19T20:11:46.061Z,68.21
2023-01-19T20:14:17.016Z,68.20
2023-01-19T20:16:45.683Z,68.22
2023-01-19T20:19:13.406Z,68.18
2023-01-19T20:21:43.472Z,68.29
2023-01-19T20:24:17.979Z,68.33
2023-01-19T20:26:50.984Z,68.30
2023-01-19T20:29:21.180Z,68.37
2023-01-19T20:32:01.100Z,68.52
2023-01-19T20:34:33.448Z,68.48
2023-01-19T20:37:06.716Z,68.72
2023-01-19T20:39:37.164Z,68.83
2023-01-19T20:42:06.410Z,68.86
2023-01-19T20:44:34.568Z,68.95
2023-01-19T20:47:04.689Z,69.04
2023-01-19T20:49:34.988Z,69.06
2023-01-19T20:52:04.349Z,69.23
2023-01-19T20:54:31.521Z,69.25
2023-01-19T20:57:00.656Z,69.34
2023-01-19T20:59:32.461Z,69.32
2023-01-19T21:02:00.700Z,69.36
2023-01-19T21:04:28.460Z,69.59
2023-01-19T21:06:56.009Z,69.61
2023-01-19T21:09:23.518Z,69.61
2023-01-19T21:11:57.361Z,69.67
2023-01-19T21:14:25.396Z,69.65
2023-01-19T21:16:53.792Z,69.72
2023-01-19T21:19:23.796Z,69.67
2023-01-19T21:21:55.656Z,69.71
2023-01-19T21:24:25.504Z,69.76
2023-01-19T21:26:53.639Z,69.86
2023-01-19T21:29:21.417Z,69.83
2023-01-19T21:31:48.284Z,69.98
2023-01-19T21:34:15.509Z,69.94
2023-01-19T21:36:44.848Z,69.89
2023-01-19T21:39:11.885Z,69.90
2023-01-19T21:41:40.631Z,69.83
2023-01-19T21:44:08.370Z,69.83
2023-01-19T21:46:35.974Z,69.86
2023-01-19T21:49:06.114Z,69.92
2023-01-19T21:51:36.547Z,69.92
2023-01-19T21:54:05.551Z,69.85
2023-01-19T21:56:33.228Z,69.77
2023-01-19T21:59:04.475Z,69.75
2023-01-19T22:01:33.011Z,69.63
2023-01-19T22:04:00.378Z,69.49
2023-01-19T22:06:27.724Z,69.54
2023-01-19T22:08:55.949Z,69.49
2023-01-19T22:11:23.713Z,69.53
2023-01-19T22:13:51.317Z,69.49
2023-01-19T22:16:20.842Z,69.29
2023-01-19T22:18:54.249Z,69.16
2023-01-19T22:21:24.837Z,69.15
2023-01-19T22:23:56.715Z,69.17
2023-01-19T22:26:24.213Z,69.19
2023-01-19T22:28:59.662Z,69.36
2023-01-19T22:31:28.840Z,69.42
2023-01-19T22:33:55.969Z,69.52
2023-01-19T22:36:25.797Z,69.54
2023-01-19T22:38:55.575Z,69.57
2023-01-19T22:41:31.059Z,69.60
2023-01-19T22:44:01.079Z,69.55
2023-01-19T22:46:30.254Z,69.65
2023-01-19T22:48:58.428Z,69.71
2023-01-19T22:51:27.114Z,69.77
2023-01-19T22:53:54.241Z,69.73
2023-01-19T22:56:24.392Z,69.90
2023-01-19T22:58:52.312Z,69.94
2023-01-19T23:01:22.602Z,69.95
2023-01-19T23:03:50.365Z,69.88
2023-01-19T23:06:23.074Z,69.89
2023-01-19T23:08:51.033Z,70.00
2023-01-19T23:11:23.728Z,69.99
2023-01-19T23:13:51.216Z,70.15
2023-01-19T23:16:19.101Z,70.09
2023-01-19T23:18:46.547Z,70.23
2023-01-19T23:21:16.996Z,70.28
2023-01-19T23:23:45.143Z,70.29
2023-01-19T23:26:15.513Z,70.32
2023-01-19T23:28:43.125Z,70.37
2023-01-19T23:31:23.226Z,70.33
2023-01-19T23:33:55.396Z,70.44
2023-01-19T23:36:24.670Z,70.44
2023-01-19T23:38:54.627Z,70.51
2023-01-19T23:41:22.832Z,70.56
2023-01-19T23:43:50.671Z,70.56
2023-01-19T23:46:19.488Z,70.47
2023-01-19T23:48:46.723Z,70.42
2023-01-19T23:51:25.792Z,70.41
2023-01-19T23:53:53.640Z,70.42
2023-01-19T23:56:24.254Z,70.45
2023-01-19T23:59:03.223Z,70.46
